Time;durP1;ratioP1;P1;durP2;ratioP2;P2;SDS_P1;SDS_P2;PMS_P1;PMS_P2;Temp;Humidity;BMP_temperature;BMP_pressure;BME280_temperature;BME280_humidity;BME280_pressure;Samples;Min_cycle;Max_cycle;Signal;HPM_P1;HPM_P2
2023/10/24 00:02:06;;;;;;;29.20;17.73;;;8.90;99.90;;;;;;6153993;23;20177;-80
2023/10/24 00:04:42;;;;;;;26.13;16.80;;;8.90;99.90;;;;;;6129583;23;20175;-80
2023/10/24 00:07:19;;;;;;;24.83;16.97;;;8.80;99.90;;;;;;6105357;23;20226;-79
2023/10/24 00:09:47;;;;;;;27.77;17.37;;;8.70;99.90;;;;;;6035876;23;20170;-80
2023/10/24 00:12:19;;;;;;;25.63;17.47;;;8.60;99.90;;;;;;6012217;23;20250;-79
2023/10/24 00:14:58;;;;;;;26.07;17.53;;;8.60;99.90;;;;;;6012480;23;20175;-79
2023/10/24 00:17:43;;;;;;;27.17;17.33;;;8.60;99.90;;;;;;6007961;23;20674;-79
2023/10/24 00:20:15;;;;;;;24.73;16.27;;;8.60;99.90;;;;;;6013504;23;20176;-79
2023/10/24 00:22:51;;;;;;;29.23;17.67;;;8.50;99.90;;;;;;6036722;23;20241;-80
2023/10/24 00:25:27;;;;;;;26.87;17.03;;;8.50;99.90;;;;;;6011971;23;20182;-79
2023/10/24 00:27:58;;;;;;;25.77;17.07;;;8.60;99.90;;;;;;6097900;23;20305;-80
2023/10/24 00:30:32;;;;;;;28.73;17.77;;;8.70;99.90;;;;;;6159984;23;20167;-80
2023/10/24 00:33:00;;;;;;;35.17;18.37;;;8.80;99.90;;;;;;6134751;23;20205;-80
2023/10/24 00:35:32;;;;;;;25.23;17.57;;;8.80;99.90;;;;;;6134346;23;20180;-79
2023/10/24 00:38:16;;;;;;;36.27;18.63;;;8.80;99.90;;;;;;6158544;23;20245;-79
2023/10/24 00:40:51;;;;;;;29.87;18.37;;;8.80;99.90;;;;;;6158890;23;20171;-80
2023/10/24 00:43:26;;;;;;;25.70;17.37;;;8.90;99.90;;;;;;6160484;23;20649;-80
2023/10/24 00:46:04;;;;;;;48.67;20.10;;;8.90;99.90;;;;;;6136478;23;20168;-79
2023/10/24 00:48:38;;;;;;;25.27;16.83;;;9.00;99.90;;;;;;6183944;23;20215;-79
2023/10/24 00:51:12;;;;;;;28.33;17.17;;;9.10;99.90;;;;;;6133424;23;20175;-78
2023/10/24 00:53:42;;;;;;;41.63;20.40;;;9.10;99.90;;;;;;6158663;23;20502;-79
2023/10/24 00:56:20;;;;;;;26.00;17.20;;;9.20;99.90;;;;;;6134693;23;20209;-79
2023/10/24 00:58:57;;;;;;;28.23;17.13;;;9.20;99.90;;;;;;6185256;23;20174;-78
2023/10/24 01:01:31;;;;;;;24.83;16.67;;;9.20;99.90;;;;;;6184386;23;20536;-79
2023/10/24 01:04:00;;;;;;;27.57;16.80;;;9.30;99.90;;;;;;6183777;23;20194;-78
2023/10/24 01:06:37;;;;;;;27.27;17.70;;;9.30;99.90;;;;;;6158897;23;20553;-79
2023/10/24 01:09:07;;;;;;;28.57;16.17;;;9.20;99.90;;;;;;6158374;23;20598;-78
2023/10/24 01:11:49;;;;;;;27.00;16.83;;;9.40;99.90;;;;;;6159832;23;20171;-78
2023/10/24 01:14:28;;;;;;;23.60;15.90;;;9.30;99.90;;;;;;6156728;23;20181;-79
2023/10/24 01:17:00;;;;;;;26.67;16.50;;;9.20;99.90;;;;;;6157849;23;20198;-79
2023/10/24 01:19:35;;;;;;;26.17;16.83;;;9.20;99.90;;;;;;6159012;23;20167;-79
2023/10/24 01:22:07;;;;;;;32.97;18.07;;;9.20;99.90;;;;;;6158303;23;20179;-79
2023/10/24 01:24:37;;;;;;;32.10;17.37;;;9.00;99.90;;;;;;6158539;23;20181;-80
2023/10/24 01:27:09;;;;;;;24.27;15.97;;;9.00;99.90;;;;;;6159542;23;20199;-78
2023/10/24 01:29:47;;;;;;;28.93;17.37;;;9.00;99.90;;;;;;6159996;23;20175;-80
2023/10/24 01:32:18;;;;;;;24.67;16.80;;;8.90;99.90;;;;;;6159626;23;20157;-79
2023/10/24 01:34:48;;;;;;;35.00;18.50;;;8.90;99.90;;;;;;6133650;23;20175;-80
2023/10/24 01:37:31;;;;;;;27.60;17.67;;;9.00;99.90;;;;;;6153515;23;20191;-79
2023/10/24 01:39:59;;;;;;;26.83;17.50;;;9.00;99.90;;;;;;6133645;23;20753;-79
2023/10/24 01:42:38;;;;;;;27.10;17.53;;;8.90;99.90;;;;;;6158203;23;20176;-80
2023/10/24 01:45:17;;;;;;;31.60;18.27;;;8.90;99.90;;;;;;6185359;23;20167;-80
2023/10/24 01:47:48;;;;;;;30.97;18.53;;;9.00;99.90;;;;;;6158103;23;20303;-80
2023/10/24 01:50:20;;;;;;;31.40;18.23;;;9.00;99.90;;;;;;6158063;23;20181;-78
2023/10/24 01:52:58;;;;;;;30.80;18.73;;;9.10;99.90;;;;;;6135097;23;20190;-80
2023/10/24 01:55:44;;;;;;;34.30;19.00;;;9.10;99.90;;;;;;6160784;23;20180;-79
2023/10/24 01:58:22;;;;;;;31.77;18.30;;;9.10;99.90;;;;;;6184018;23;20214;-80
2023/10/24 02:00:56;;;;;;;35.57;19.57;;;9.00;99.90;;;;;;6183215;23;20606;-79
2023/10/24 02:03:27;;;;;;;29.60;18.50;;;9.00;99.90;;;;;;6157806;23;20191;-79
2023/10/24 02:06:26;;;;;;;30.53;19.00;;;9.10;99.90;;;;;;6133428;23;20218;-79
2023/10/24 02:09:02;;;;;;;30.73;18.73;;;9.00;99.90;;;;;;6159454;23;20245;-79
2023/10/24 02:11:50;;;;;;;29.43;19.27;;;9.00;99.90;;;;;;6157616;23;20172;-80
2023/10/24 02:14:21;;;;;;;27.63;18.70;;;9.10;99.90;;;;;;6134010;23;20257;-79
2023/10/24 02:16:51;;;;;;;54.90;22.13;;;9.10;99.90;;;;;;6158289;23;20180;-81
2023/10/24 02:19:35;;;;;;;34.40;19.50;;;9.20;99.90;;;;;;6135690;23;20174;-80
2023/10/24 02:22:14;;;;;;;33.47;19.80;;;9.10;99.90;;;;;;6159663;23;20175;-80
2023/10/24 02:24:53;;;;;;;28.63;18.33;;;9.20;99.90;;;;;;6156523;23;20155;-80
2023/10/24 02:27:32;;;;;;;30.67;18.83;;;9.10;99.90;;;;;;6157322;23;20207;-77
2023/10/24 02:30:05;;;;;;;30.80;18.50;;;9.20;99.90;;;;;;6158989;23;20174;-80
2023/10/24 02:32:51;;;;;;;32.23;18.63;;;9.20;99.90;;;;;;6161348;23;20191;-79
2023/10/24 02:35:24;;;;;;;31.10;19.33;;;9.20;99.90;;;;;;6157600;23;20261;-79
2023/10/24 02:37:57;;;;;;;29.17;17.90;;;9.20;99.90;;;;;;6157357;23;20714;-79
2023/10/24 02:40:28;;;;;;;31.17;19.07;;;9.30;99.90;;;;;;6158053;23;20217;-78
2023/10/24 02:43:09;;;;;;;31.60;18.53;;;9.20;99.90;;;;;;6183388;23;20299;-79
2023/10/24 02:46:07;;;;;;;27.30;18.20;;;9.20;99.90;;;;;;6157509;23;20182;-79
2023/10/24 02:48:49;;;;;;;28.07;19.00;;;9.20;99.90;;;;;;6184328;23;20253;-81
2023/10/24 02:51:24;;;;;;;28.13;17.53;;;9.20;99.90;;;;;;6158157;23;20490;-78
2023/10/24 02:54:03;;;;;;;28.47;19.30;;;9.40;99.90;;;;;;6183369;23;20194;-80
2023/10/24 02:56:58;;;;;;;27.40;18.27;;;9.30;99.90;;;;;;6183643;23;20269;-80
2023/10/24 02:59:35;;;;;;;28.90;18.43;;;9.30;99.90;;;;;;6160305;23;20222;-79
2023/10/24 03:02:17;;;;;;;28.23;17.63;;;9.20;99.90;;;;;;6134813;23;20485;-80
2023/10/24 03:07:52;;;;;;;30.27;18.60;;;9.30;99.90;;;;;;6157272;23;20178;-79
2023/10/24 03:10:43;;;;;;;31.90;18.60;;;9.40;99.90;;;;;;6183845;23;20174;-80
2023/10/24 03:13:28;;;;;;;28.67;17.87;;;9.40;99.90;;;;;;6152675;23;20179;-80
2023/10/24 03:16:17;;;;;;;29.03;18.07;;;9.30;99.90;;;;;;6135429;23;20590;-79
2023/10/24 03:18:59;;;;;;;29.00;17.60;;;9.50;99.90;;;;;;6134686;23;20195;-79
2023/10/24 03:21:31;;;;;;;43.43;19.67;;;9.50;99.90;;;;;;6133634;23;20262;-79
2023/10/24 03:24:07;;;;;;;31.07;18.53;;;9.60;99.90;;;;;;6155621;23;20178;-80
2023/10/24 03:26:36;;;;;;;33.33;18.10;;;9.60;99.90;;;;;;6134494;23;20714;-80
2023/10/24 03:29:07;;;;;;;28.17;17.73;;;9.60;99.90;;;;;;6128700;23;20458;-81
2023/10/24 03:31:39;;;;;;;26.10;17.00;;;9.70;99.90;;;;;;6103820;23;20621;-79
2023/10/24 03:34:16;;;;;;;24.67;16.47;;;9.70;99.90;;;;;;6153032;23;20263;-80
2023/10/24 03:36:48;;;;;;;30.60;17.73;;;9.70;99.90;;;;;;6127512;23;20211;-77
2023/10/24 03:39:32;;;;;;;25.83;16.30;;;9.70;99.90;;;;;;6155022;23;20167;-78
2023/10/24 03:42:13;;;;;;;25.77;16.80;;;9.70;99.90;;;;;;6130243;23;20465;-79
2023/10/24 03:45:01;;;;;;;30.03;15.97;;;9.70;99.90;;;;;;6128677;23;20179;-77
2023/10/24 03:47:41;;;;;;;24.47;15.77;;;9.70;99.90;;;;;;6129215;23;20199;-79
2023/10/24 03:50:13;;;;;;;24.27;16.13;;;9.70;99.90;;;;;;6129967;23;20207;-80
2023/10/24 03:52:47;;;;;;;25.67;16.10;;;9.70;99.90;;;;;;6106004;23;20668;-79
2023/10/24 03:55:30;;;;;;;24.73;15.37;;;9.70;99.90;;;;;;6129811;23;20192;-80
2023/10/24 03:58:06;;;;;;;26.83;15.97;;;9.60;99.90;;;;;;6130733;23;20199;-80
2023/10/24 04:00:37;;;;;;;25.93;15.80;;;9.70;99.90;;;;;;6130604;23;20309;-80
2023/10/24 04:03:14;;;;;;;28.87;16.40;;;9.70;99.90;;;;;;6154322;23;20192;-77
2023/10/24 04:05:55;;;;;;;24.70;15.57;;;9.60;99.90;;;;;;6132264;23;20168;-80
2023/10/24 04:08:27;;;;;;;25.50;16.20;;;9.50;99.90;;;;;;6128478;23;20173;-80
2023/10/24 04:10:58;;;;;;;26.37;16.50;;;9.50;99.90;;;;;;6130037;23;20222;-79
2023/10/24 04:13:31;;;;;;;27.37;16.57;;;9.40;99.90;;;;;;6129416;23;20168;-80
2023/10/24 04:16:05;;;;;;;27.13;16.80;;;9.30;99.90;;;;;;6154612;23;20171;-80
2023/10/24 04:18:40;;;;;;;27.37;16.73;;;9.20;99.90;;;;;;6128849;23;20212;-80
2023/10/24 04:21:24;;;;;;;26.50;15.93;;;9.20;99.90;;;;;;6132913;23;20255;-80
2023/10/24 04:24:12;;;;;;;29.20;16.37;;;9.20;99.90;;;;;;6125649;23;20179;-80
2023/10/24 04:26:58;;;;;;;31.40;17.50;;;9.20;99.90;;;;;;6131226;23;20195;-79
2023/10/24 04:29:44;;;;;;;33.53;16.90;;;9.10;99.90;;;;;;6154636;23;20168;-80
2023/10/24 04:32:15;;;;;;;29.47;16.50;;;9.10;99.90;;;;;;6128936;23;20168;-80
2023/10/24 04:34:54;;;;;;;30.17;16.23;;;9.10;99.90;;;;;;6128753;23;20183;-79
2023/10/24 04:37:23;;;;;;;30.30;16.43;;;9.20;99.90;;;;;;6128828;23;20214;-79
2023/10/24 04:39:54;;;;;;;36.23;18.83;;;9.10;99.90;;;;;;6129058;23;20473;-75
2023/10/24 04:42:31;;;;;;;38.70;17.37;;;9.10;99.90;;;;;;6104509;23;20542;-80
2023/10/24 04:45:03;;;;;;;41.13;18.00;;;9.10;99.90;;;;;;6129894;23;20366;-80
2023/10/24 04:47:42;;;;;;;36.93;17.73;;;9.00;99.90;;;;;;6129215;23;20188;-80
2023/10/24 04:50:14;;;;;;;69.83;20.40;;;9.00;99.90;;;;;;6128859;23;20239;-79
2023/10/24 04:52:45;;;;;;;54.03;19.20;;;8.90;99.90;;;;;;6104981;23;20181;-79
2023/10/24 04:55:15;;;;;;;63.77;20.37;;;8.90;99.90;;;;;;6104765;23;20172;-79
2023/10/24 04:57:46;;;;;;;46.93;19.70;;;8.90;99.90;;;;;;6127730;23;20227;-79
2023/10/24 05:00:39;;;;;;;62.10;21.10;;;8.90;99.90;;;;;;6131892;23;20585;-79
2023/10/24 05:03:14;;;;;;;75.57;21.57;;;9.00;99.90;;;;;;6106180;23;20249;-79
2023/10/24 05:05:47;;;;;;;68.57;21.87;;;9.00;99.90;;;;;;6129451;23;20163;-80
2023/10/24 05:08:21;;;;;;;42.63;21.43;;;9.00;99.90;;;;;;6128994;23;20172;-80
2023/10/24 05:10:49;;;;;;;102.07;22.40;;;8.90;99.90;;;;;;6104762;23;20168;-80
2023/10/24 05:13:22;;;;;;;68.03;20.67;;;8.90;99.90;;;;;;6129116;23;20223;-75
2023/10/24 05:16:03;;;;;;;51.20;20.67;;;8.90;99.90;;;;;;6127628;23;20186;-81
2023/10/24 05:18:40;;;;;;;55.53;22.30;;;9.00;99.90;;;;;;6104382;23;20208;-82
2023/10/24 05:21:12;;;;;;;47.37;22.53;;;9.00;99.90;;;;;;6103841;23;20171;-81
2023/10/24 05:23:59;;;;;;;60.90;22.20;;;9.10;99.90;;;;;;6128047;23;20545;-82
2023/10/24 05:26:51;;;;;;;62.73;23.20;;;9.10;99.90;;;;;;6126825;23;20481;-81
2023/10/24 05:29:25;;;;;;;51.17;22.53;;;9.10;99.90;;;;;;6104648;23;20179;-81
2023/10/24 05:32:00;;;;;;;45.87;22.10;;;9.10;99.90;;;;;;6128215;23;20172;-81
2023/10/24 05:34:34;;;;;;;60.20;23.53;;;9.20;99.90;;;;;;6104454;23;20182;-80
2023/10/24 05:43:46;;;;;;;43.80;21.23;;;9.40;99.90;;;;;;6063243;23;20283;-80
2023/10/24 05:47:10;;;;;;;40.53;21.43;;;9.40;99.90;;;;;;6098950;23;20181;-81
2023/10/24 05:50:13;;;;;;;45.63;20.97;;;9.50;99.90;;;;;;6088303;23;20181;-81
2023/10/24 05:52:54;;;;;;;49.30;20.93;;;9.60;99.90;;;;;;6093204;23;20500;-81
2023/10/24 05:55:30;;;;;;;50.37;22.20;;;9.50;99.90;;;;;;6044936;23;20227;-83
2023/10/24 05:59:06;;;;;;;44.40;21.47;;;9.60;99.90;;;;;;6062445;23;20200;-81
2023/10/24 06:02:18;;;;;;;55.20;22.37;;;9.70;99.90;;;;;;5870399;24;20192;-79
2023/10/24 06:04:59;;;;;;;44.13;21.07;;;9.70;99.90;;;;;;5888618;24;20178;-82
2023/10/24 06:07:42;;;;;;;39.07;19.03;;;9.80;99.90;;;;;;5872017;24;20178;-81
2023/10/24 06:10:20;;;;;;;35.93;18.17;;;9.80;99.90;;;;;;5895070;24;20198;-78
2023/10/24 06:13:16;;;;;;;40.03;19.53;;;9.80;99.90;;;;;;5852820;24;20227;-79
2023/10/24 06:16:11;;;;;;;35.60;17.60;;;9.80;99.90;;;;;;5871918;24;20346;-81
2023/10/24 06:18:55;;;;;;;30.20;16.63;;;9.90;99.90;;;;;;5895389;24;20202;-81
2023/10/24 06:21:37;;;;;;;32.93;18.07;;;9.80;99.90;;;;;;5874543;24;20196;-81
2023/10/24 06:24:06;;;;;;;35.07;17.30;;;9.80;99.90;;;;;;5894858;24;20257;-80
2023/10/24 06:26:37;;;;;;;35.37;17.83;;;9.90;99.90;;;;;;5894454;24;20231;-82
2023/10/24 06:29:22;;;;;;;29.20;18.40;;;9.80;99.90;;;;;;5873525;24;20260;-80
2023/10/24 06:32:00;;;;;;;36.80;19.10;;;9.90;99.90;;;;;;5851478;24;20178;-80
2023/10/24 06:34:30;;;;;;;31.67;19.00;;;9.90;99.90;;;;;;5873414;24;20269;-78
2023/10/24 06:36:59;;;;;;;37.60;20.00;;;9.90;99.90;;;;;;5899193;23;20290;-79
2023/10/24 06:39:29;;;;;;;34.30;19.73;;;9.90;99.90;;;;;;6069096;23;20294;-79
2023/10/24 06:42:13;;;;;;;39.77;19.70;;;9.90;99.90;;;;;;6069835;23;20496;-83
2023/10/24 06:45:02;;;;;;;31.97;17.80;;;9.90;99.90;;;;;;6075847;23;20219;-80
2023/10/24 06:47:37;;;;;;;31.00;18.87;;;9.80;99.90;;;;;;6122551;23;20628;-79
2023/10/24 06:53:03;;;;;;;27.73;17.40;;;9.80;99.90;;;;;;6142030;23;20183;-81
2023/10/24 06:55:41;;;;;;;40.17;19.37;;;9.80;99.90;;;;;;6146550;23;20169;-80
2023/10/24 06:58:10;;;;;;;27.07;17.73;;;9.90;99.90;;;;;;6098260;23;20206;-77
2023/10/24 07:00:46;;;;;;;36.70;17.90;;;10.00;99.90;;;;;;6123011;23;20173;-81
2023/10/24 07:03:27;;;;;;;25.67;16.50;;;10.00;99.90;;;;;;6123537;23;20188;-80
2023/10/24 07:05:58;;;;;;;28.33;16.80;;;10.00;99.90;;;;;;6146171;23;20189;-82
2023/10/24 07:08:32;;;;;;;28.87;16.43;;;10.00;99.90;;;;;;6099644;23;20186;-82
2023/10/24 07:11:03;;;;;;;26.83;16.70;;;10.00;99.90;;;;;;6123182;23;20169;-81
2023/10/24 07:13:42;;;;;;;30.83;17.40;;;9.90;99.90;;;;;;6122697;23;20172;-79
2023/10/24 07:16:22;;;;;;;27.37;16.23;;;10.00;99.90;;;;;;6123323;23;20171;-81
2023/10/24 07:18:50;;;;;;;27.30;16.90;;;10.00;99.90;;;;;;6097349;23;20200;-81
2023/10/24 07:21:19;;;;;;;29.33;16.77;;;10.30;99.90;;;;;;6123908;23;20260;-79
2023/10/24 07:24:04;;;;;;;34.53;17.50;;;10.20;99.90;;;;;;6122344;23;20164;-80
2023/10/24 07:26:41;;;;;;;31.30;17.50;;;10.10;99.90;;;;;;6123670;23;20164;-81
2023/10/24 07:29:12;;;;;;;34.97;17.73;;;10.40;99.90;;;;;;6124583;23;20180;-80
2023/10/24 07:31:41;;;;;;;28.67;17.33;;;10.40;99.90;;;;;;6146485;23;20670;-79
2023/10/24 07:34:12;;;;;;;34.60;18.27;;;10.50;99.90;;;;;;6122540;23;20192;-79
2023/10/24 07:36:40;;;;;;;29.07;17.37;;;10.50;99.90;;;;;;6123642;23;20192;-78
2023/10/24 07:39:07;;;;;;;30.37;17.70;;;10.70;99.90;;;;;;6122152;23;20209;-80
2023/10/24 07:41:38;;;;;;;32.00;18.50;;;10.80;99.90;;;;;;6009455;23;20171;-78
2023/10/24 07:44:13;;;;;;;29.43;17.13;;;10.90;99.90;;;;;;6011306;23;20202;-77
2023/10/24 07:46:53;;;;;;;27.23;16.53;;;11.00;99.90;;;;;;6034273;23;20274;-79
2023/10/24 07:49:30;;;;;;;27.00;16.10;;;11.20;99.90;;;;;;5989012;23;20190;-78
2023/10/24 07:52:26;;;;;;;24.57;14.90;;;11.20;99.90;;;;;;6033745;23;20607;-80
2023/10/24 07:55:00;;;;;;;26.77;16.03;;;11.30;99.90;;;;;;6034436;23;21234;-78
2023/10/24 07:57:37;;;;;;;26.80;16.27;;;11.20;99.90;;;;;;6009437;23;20318;-75
2023/10/24 08:00:16;;;;;;;30.90;15.83;;;11.30;99.90;;;;;;6078623;23;20218;-79
2023/10/24 08:02:57;;;;;;;27.33;16.23;;;11.40;99.90;;;;;;6121564;23;20252;-81
2023/10/24 08:05:48;;;;;;;32.60;17.20;;;11.30;99.90;;;;;;6121638;23;20187;-81
2023/10/24 08:08:24;;;;;;;40.83;18.23;;;11.70;99.90;;;;;;6123305;23;20173;-81
2023/10/24 08:11:01;;;;;;;32.50;17.90;;;11.90;99.90;;;;;;6145471;23;20172;-81
2023/10/24 08:13:49;;;;;;;27.27;16.80;;;12.00;99.90;;;;;;6122703;23;20289;-80
2023/10/24 08:16:29;;;;;;;31.20;17.30;;;11.90;99.90;;;;;;6122062;23;20173;-80
2023/10/24 08:19:11;;;;;;;31.07;18.57;;;11.90;99.90;;;;;;6122464;23;20189;-81
2023/10/24 08:21:47;;;;;;;37.83;20.17;;;11.90;99.90;;;;;;6145450;23;20180;-81
2023/10/24 08:24:21;;;;;;;37.63;20.90;;;11.70;99.90;;;;;;6100639;23;20176;-80
2023/10/24 08:27:04;;;;;;;45.40;22.03;;;11.70;99.90;;;;;;6123809;23;20192;-83
2023/10/24 08:32:36;;;;;;;34.00;19.90;;;11.80;99.90;;;;;;6124308;23;20456;-81
2023/10/24 08:35:38;;;;;;;36.93;21.03;;;11.80;99.90;;;;;;6101559;23;20259;-79
2023/10/24 08:38:34;;;;;;;45.00;20.20;;;11.80;99.90;;;;;;6146487;23;20628;-83
2023/10/24 08:41:13;;;;;;;37.07;20.27;;;11.70;99.90;;;;;;6122357;23;20247;-79
2023/10/24 08:43:47;;;;;;;45.90;20.57;;;11.60;99.90;;;;;;6146003;23;20168;-82
2023/10/24 08:46:47;;;;;;;36.77;19.77;;;11.50;99.90;;;;;;6095866;23;20217;-82
2023/10/24 08:49:23;;;;;;;36.70;20.53;;;11.60;99.90;;;;;;6091529;23;20189;-81
2023/10/24 08:52:09;;;;;;;38.37;20.57;;;11.60;99.90;;;;;;6073030;23;20166;-81
2023/10/24 08:54:57;;;;;;;38.83;20.67;;;11.60;99.90;;;;;;6071166;23;20173;-81
2023/10/24 08:57:45;;;;;;;43.67;21.20;;;11.70;99.90;;;;;;6048380;23;20602;-80
2023/10/24 09:00:35;;;;;;;37.73;20.83;;;11.60;99.90;;;;;;6071629;23;20174;-78
2023/10/24 09:06:38;;;;;;;37.37;21.00;;;11.90;99.90;;;;;;6035085;23;20214;-80
2023/10/24 09:09:32;;;;;;;40.60;21.23;;;12.00;99.90;;;;;;6013683;23;20175;-82
2023/10/24 09:12:14;;;;;;;37.43;21.47;;;12.00;99.90;;;;;;6035032;23;20175;-80
2023/10/24 09:14:52;;;;;;;39.90;21.37;;;12.10;99.90;;;;;;6035108;23;20179;-82
2023/10/24 09:17:35;;;;;;;35.80;20.37;;;12.30;99.90;;;;;;6033142;23;20309;-80
2023/10/24 09:20:31;;;;;;;33.47;20.87;;;12.40;99.90;;;;;;6035103;23;20182;-81
2023/10/24 09:23:20;;;;;;;42.43;20.93;;;12.60;99.90;;;;;;6033281;23;20483;-82
2023/10/24 09:26:08;;;;;;;31.93;19.97;;;12.80;99.90;;;;;;6014170;23;20252;-84
2023/10/24 09:28:45;;;;;;;30.70;18.67;;;12.80;99.90;;;;;;5988680;23;20234;-78
2023/10/24 09:31:26;;;;;;;36.30;19.70;;;12.80;99.90;;;;;;6013714;23;20246;-83
2023/10/24 09:34:11;;;;;;;39.63;19.43;;;13.00;99.90;;;;;;5988365;23;20690;-82
2023/10/24 09:36:51;;;;;;;33.33;18.60;;;13.10;99.90;;;;;;6034564;23;20667;-78
2023/10/24 09:39:29;;;;;;;30.93;18.53;;;13.40;99.90;;;;;;5988412;23;20702;-82
2023/10/24 09:42:16;;;;;;;32.53;17.40;;;13.90;99.90;;;;;;6034161;23;20642;-81
2023/10/24 09:45:12;;;;;;;28.67;16.60;;;14.50;99.90;;;;;;6071602;23;20283;-82
2023/10/24 09:47:51;;;;;;;29.90;16.73;;;15.10;99.90;;;;;;6146085;23;20260;-82
2023/10/24 09:50:39;;;;;;;28.53;15.30;;;15.90;99.90;;;;;;6119171;23;20259;-79
2023/10/24 09:53:20;;;;;;;24.23;14.77;;;16.50;99.90;;;;;;6121826;23;20173;-77
2023/10/24 09:56:16;;;;;;;26.30;14.80;;;17.10;99.90;;;;;;6095740;23;20500;-80
2023/10/24 09:59:01;;;;;;;21.33;12.90;;;17.50;99.90;;;;;;6121685;23;20197;-81
2023/10/24 10:01:46;;;;;;;19.70;12.30;;;17.80;99.90;;;;;;6096469;23;20342;-80
2023/10/24 10:04:37;;;;;;;18.77;11.17;;;18.40;99.90;;;;;;6100830;23;20162;-82
2023/10/24 10:07:21;;;;;;;21.60;11.13;;;18.50;99.90;;;;;;6098170;23;20176;-81
2023/10/24 10:10:02;;;;;;;16.60;10.90;;;18.80;99.90;;;;;;6073906;23;20252;-77
2023/10/24 10:12:40;;;;;;;15.40;10.57;;;19.00;99.90;;;;;;6098348;23;20172;-80
2023/10/24 10:15:54;;;;;;;16.33;10.90;;;19.20;99.90;;;;;;6076795;23;20173;-80
2023/10/24 10:18:58;;;;;;;22.03;10.63;;;19.70;99.90;;;;;;6010732;23;20690;-80
2023/10/24 10:21:59;;;;;;;24.17;10.40;;;19.50;99.90;;;;;;6010920;23;20185;-80
2023/10/24 10:24:55;;;;;;;14.13;9.00;;;19.80;99.90;;;;;;6011167;23;20175;-78
2023/10/24 10:27:55;;;;;;;14.20;8.87;;;19.90;99.90;;;;;;6034439;23;20261;-80
2023/10/24 10:30:40;;;;;;;13.70;8.23;;;20.00;99.90;;;;;;6034843;23;20359;-78
2023/10/24 10:33:26;;;;;;;20.93;8.67;;;20.20;99.90;;;;;;6031889;23;20682;-81
2023/10/24 10:36:13;;;;;;;18.70;7.63;;;20.60;99.90;;;;;;6012836;23;20210;-81
2023/10/24 10:42:52;;;;;;;10.90;6.23;;;21.50;99.90;;;;;;6019002;23;20177;-79
2023/10/24 10:45:49;;;;;;;11.07;6.40;;;21.90;99.90;;;;;;6076042;23;20207;-78
2023/10/24 10:48:36;;;;;;;10.87;6.07;;;22.00;99.90;;;;;;6096443;23;20667;-80
2023/10/24 10:52:07;;;;;;;8.93;6.37;;;22.00;99.90;;;;;;6096158;23;20684;-78
2023/10/24 10:55:34;;;;;;;13.73;6.63;;;22.40;99.90;;;;;;6119132;23;20176;-79
2023/10/24 10:58:50;;;;;;;11.23;6.63;;;22.70;99.90;;;;;;6095457;23;20184;-79
2023/10/24 11:02:07;;;;;;;9.63;6.38;;;22.60;99.90;;;;;;6097235;23;20250;-78
2023/10/24 11:05:06;;;;;;;10.63;6.83;;;22.70;99.90;;;;;;6119119;23;20648;-80
2023/10/24 11:07:54;;;;;;;10.50;6.67;;;22.70;99.90;;;;;;6120462;23;20183;-78
2023/10/24 11:10:45;;;;;;;13.50;6.93;;;23.00;99.90;;;;;;6097653;23;20169;-80
2023/10/24 11:13:34;;;;;;;13.38;6.20;;;23.20;99.90;;;;;;6091657;23;20177;-79
2023/10/24 11:16:19;;;;;;;9.82;6.72;;;23.30;99.90;;;;;;6118436;23;20173;-76
2023/10/24 11:19:05;;;;;;;13.50;6.70;;;23.90;99.90;;;;;;6005802;23;20203;-78
2023/10/24 11:21:54;;;;;;;8.40;5.63;;;23.90;99.90;;;;;;6006414;23;20199;-78
2023/10/24 11:24:29;;;;;;;10.30;6.00;;;24.10;99.90;;;;;;5982207;23;20206;-78
2023/10/24 11:27:04;;;;;;;8.10;5.50;;;24.50;99.90;;;;;;5959970;23;20175;-76
2023/10/24 11:29:37;;;;;;;8.93;5.35;;;24.60;99.90;;;;;;6006578;23;20175;-78
2023/10/24 11:32:19;;;;;;;8.32;5.18;;;24.80;99.90;;;;;;5983802;23;20300;-78
2023/10/24 11:35:02;;;;;;;8.00;4.93;;;25.50;99.90;;;;;;5983758;23;20573;-78
2023/10/24 11:37:33;;;;;;;8.02;4.63;;;25.50;99.90;;;;;;5982545;23;20197;-79
2023/10/24 11:40:02;;;;;;;8.07;4.45;;;25.70;99.90;;;;;;5981414;23;20255;-77
2023/10/24 11:42:37;;;;;;;7.78;4.80;;;26.00;99.90;;;;;;6005393;23;20256;-78
2023/10/24 11:45:11;;;;;;;9.93;4.13;;;26.10;99.90;;;;;;5983448;23;20207;-78
2023/10/24 11:47:43;;;;;;;10.45;4.63;;;26.70;99.90;;;;;;5982920;23;20215;-79
2023/10/24 11:50:15;;;;;;;8.35;4.25;;;26.40;99.90;;;;;;6006560;23;20266;-78
2023/10/24 11:53:09;;;;;;;9.38;4.65;;;26.30;99.90;;;;;;5982296;23;20176;-78
2023/10/24 11:56:01;;;;;;;12.32;5.07;;;25.70;99.90;;;;;;6037828;23;20328;-78
2023/10/24 11:58:42;;;;;;;10.38;4.35;;;25.90;99.90;;;;;;6121368;23;20352;-79
2023/10/24 12:01:11;;;;;;;7.32;4.18;;;25.80;99.90;;;;;;6122963;23;20172;-77
2023/10/24 12:03:46;;;;;;;9.50;4.47;;;26.00;99.90;;;;;;6122220;23;20220;-78
2023/10/24 12:06:29;;;;;;;8.80;4.18;;;26.20;99.90;;;;;;6122863;23;20244;-78
2023/10/24 12:09:19;;;;;;;8.57;4.60;;;26.10;99.90;;;;;;6102463;23;20176;-78
2023/10/24 12:11:47;;;;;;;7.18;4.32;;;26.20;99.90;;;;;;6123156;23;20467;-77
2023/10/24 12:14:18;;;;;;;9.48;4.93;;;26.40;99.90;;;;;;6098521;23;20435;-77
2023/10/24 12:16:51;;;;;;;8.43;5.30;;;26.30;99.90;;;;;;6123159;23;20252;-76
2023/10/24 12:19:26;;;;;;;8.55;5.30;;;26.10;99.90;;;;;;6123857;23;20655;-78
2023/10/24 12:22:06;;;;;;;8.90;5.13;;;25.80;99.90;;;;;;6125010;23;20168;-78
2023/10/24 12:24:44;;;;;;;6.80;4.82;;;25.70;99.90;;;;;;6124801;23;20552;-78
2023/10/24 12:27:13;;;;;;;14.02;5.63;;;25.80;99.90;;;;;;6123652;23;20271;-77
2023/10/24 12:29:48;;;;;;;10.55;5.22;;;25.50;99.90;;;;;;6124463;23;20148;-77
2023/10/24 12:32:22;;;;;;;8.73;5.00;;;25.50;99.90;;;;;;6147626;23;20173;-78
2023/10/24 12:34:53;;;;;;;6.80;4.50;;;25.40;99.90;;;;;;6124527;23;20229;-78
2023/10/24 12:37:26;;;;;;;8.05;4.78;;;25.10;99.90;;;;;;6123764;23;20169;-75
2023/10/24 12:39:57;;;;;;;7.13;4.88;;;24.60;99.90;;;;;;6147302;23;20189;-79
2023/10/24 12:42:32;;;;;;;11.52;4.60;;;23.80;99.90;;;;;;6125817;23;20639;-78
2023/10/24 12:45:09;;;;;;;12.65;4.60;;;22.90;99.90;;;;;;6148119;23;20200;-78
2023/10/24 12:47:39;;;;;;;7.80;4.07;;;22.50;99.90;;;;;;6123748;23;20199;-79
2023/10/24 12:50:16;;;;;;;7.10;4.00;;;22.20;99.90;;;;;;6125463;23;20165;-79
2023/10/24 12:52:46;;;;;;;6.00;3.70;;;21.80;99.90;;;;;;6148397;23;20169;-80
2023/10/24 12:55:26;;;;;;;7.33;4.10;;;21.30;99.90;;;;;;6147389;23;20547;-79
2023/10/24 12:57:59;;;;;;;12.67;4.47;;;20.80;99.90;;;;;;6124764;23;20172;-79
2023/10/24 13:00:27;;;;;;;8.23;3.60;;;20.20;99.90;;;;;;6125495;23;20192;-81
2023/10/24 13:02:55;;;;;;;6.37;3.57;;;19.80;99.90;;;;;;6123386;23;20193;-79
2023/10/24 13:05:23;;;;;;;4.37;3.20;;;19.50;99.90;;;;;;6125027;23;20161;-79
2023/10/24 13:07:54;;;;;;;7.43;3.60;;;19.00;99.90;;;;;;6148989;23;20192;-79
2023/10/24 13:10:40;;;;;;;8.00;3.60;;;18.90;99.90;;;;;;6124135;23;20177;-78
2023/10/24 13:13:20;;;;;;;6.60;3.50;;;19.10;99.90;;;;;;6148919;23;20180;-79
2023/10/24 13:15:56;;;;;;;8.73;3.97;;;19.00;99.90;;;;;;6124192;23;20184;-78
2023/10/24 13:18:35;;;;;;;7.83;3.70;;;18.90;99.90;;;;;;6146523;23;20197;-78
2023/10/24 13:21:06;;;;;;;10.50;4.10;;;18.90;99.90;;;;;;6123600;23;20628;-76
2023/10/24 13:23:39;;;;;;;7.27;3.57;;;18.70;99.90;;;;;;6123396;23;20216;-78
2023/10/24 13:26:13;;;;;;;8.03;3.63;;;18.60;99.90;;;;;;6123802;23;20216;-79
2023/10/24 13:28:56;;;;;;;8.53;3.67;;;18.30;99.90;;;;;;6124209;23;20196;-80
2023/10/24 13:31:37;;;;;;;4.40;3.20;;;18.10;99.90;;;;;;6124579;23;20276;-80
2023/10/24 13:34:19;;;;;;;6.83;3.47;;;18.00;99.90;;;;;;6124532;23;20193;-80
2023/10/24 13:36:51;;;;;;;12.23;4.10;;;17.80;99.90;;;;;;6123370;23;20177;-80
2023/10/24 13:39:23;;;;;;;13.77;4.33;;;17.70;99.90;;;;;;6123766;23;20562;-79
2023/10/24 13:41:56;;;;;;;6.80;3.70;;;17.70;99.90;;;;;;6148044;23;20173;-79
2023/10/24 13:47:44;;;;;;;15.27;4.47;;;17.20;99.90;;;;;;6096332;23;20186;-79
2023/10/24 13:50:18;;;;;;;9.03;4.20;;;17.30;99.90;;;;;;6094649;23;20173;-79
2023/10/24 13:52:51;;;;;;;8.10;3.90;;;17.20;99.90;;;;;;6046860;23;20632;-80
2023/10/24 13:55:33;;;;;;;10.13;4.10;;;17.20;99.90;;;;;;6095532;23;20253;-79
2023/10/24 13:58:15;;;;;;;8.97;4.63;;;17.10;99.90;;;;;;5982083;23;20176;-79
2023/10/24 14:00:52;;;;;;;7.00;4.40;;;17.00;99.90;;;;;;6006825;23;20664;-79
2023/10/24 14:03:31;;;;;;;14.23;5.20;;;16.70;99.90;;;;;;6004536;23;20672;-76
2023/10/24 14:05:59;;;;;;;11.87;4.90;;;16.70;99.90;;;;;;6006936;23;20579;-79